Time;durP1;ratioP1;P1;durP2;ratioP2;P2;SDS_P1;SDS_P2;PMS_P1;PMS_P2;Temp;Humidity;BMP_temperature;BMP_pressure;BME280_temperature;BME280_humidity;BME280_pressure;Samples;Min_cycle;Max_cycle;Signal;HPM_P1;HPM_P2
2021/03/01 00:00:35;;;;;;;;;;;19.20;38.70;;;;;;477249;249;1128;-54
2021/03/01 00:02:37;;;;;;;;;;;19.20;38.70;;;;;;477162;250;1207;-54
2021/03/01 00:04:38;;;;;;;;;;;19.30;38.70;;;;;;477132;250;988;-54
2021/03/01 00:06:39;;;;;;;;;;;19.30;38.70;;;;;;477199;249;1199;-53
2021/03/01 00:08:41;;;;;;;;;;;19.30;38.70;;;;;;477198;249;1178;-54
2021/03/01 00:10:42;;;;;;;;;;;19.30;38.60;;;;;;477238;249;1267;-54
2021/03/01 00:12:43;;;;;;;;;;;19.30;38.60;;;;;;477133;250;1171;-54
2021/03/01 00:14:44;;;;;;;;;;;19.30;38.60;;;;;;477223;249;1083;-54
2021/03/01 00:16:46;;;;;;;;;;;19.30;38.60;;;;;;477146;249;2148;-54
2021/03/01 00:18:47;;;;;;;;;;;19.30;38.60;;;;;;477397;249;1143;-54
2021/03/01 00:20:49;;;;;;;;;;;19.40;38.60;;;;;;477234;250;1068;-54
2021/03/01 00:22:50;;;;;;;;;;;19.40;38.60;;;;;;477176;249;1179;-54
2021/03/01 00:24:51;;;;;;;;;;;19.40;38.50;;;;;;477244;249;1050;-54
2021/03/01 00:26:53;;;;;;;;;;;19.40;38.50;;;;;;477195;249;1067;-54
2021/03/01 00:28:54;;;;;;;;;;;19.40;38.50;;;;;;477185;250;1033;-54
2021/03/01 00:30:55;;;;;;;;;;;19.40;38.50;;;;;;477158;250;1072;-54
2021/03/01 00:32:56;;;;;;;;;;;19.40;38.50;;;;;;477283;249;1056;-53
2021/03/01 00:34:58;;;;;;;;;;;19.50;38.50;;;;;;477244;249;953;-54
2021/03/01 00:36:59;;;;;;;;;;;19.50;38.50;;;;;;477167;249;2152;-53
2021/03/01 00:39:00;;;;;;;;;;;19.50;38.50;;;;;;477264;249;1185;-54
2021/03/01 00:41:02;;;;;;;;;;;19.50;38.40;;;;;;477145;249;1107;-54
2021/03/01 00:43:03;;;;;;;;;;;19.50;38.40;;;;;;477154;250;963;-53
2021/03/01 00:45:04;;;;;;;;;;;19.50;37.10;;;;;;477206;249;1207;-54
2021/03/01 00:47:05;;;;;;;;;;;19.50;38.40;;;;;;477130;249;1031;-54
2021/03/01 00:49:07;;;;;;;;;;;19.50;38.40;;;;;;477396;249;1035;-54
2021/03/01 00:51:08;;;;;;;;;;;19.50;38.30;;;;;;477265;249;1090;-54
2021/03/01 00:53:09;;;;;;;;;;;19.50;38.30;;;;;;477186;250;1339;-54
2021/03/01 00:55:11;;;;;;;;;;;19.60;38.40;;;;;;477152;250;1082;-54
2021/03/01 00:57:12;;;;;;;;;;;19.60;38.40;;;;;;477163;250;2194;-54
2021/03/01 00:59:13;;;;;;;;;;;19.60;38.30;;;;;;477286;249;1056;-53
2021/03/01 01:01:14;;;;;;;;;;;19.60;38.30;;;;;;477249;249;1033;-54
2021/03/01 01:03:17;;;;;;;;;;;19.60;38.30;;;;;;477136;250;1080;-53
2021/03/01 01:05:18;;;;;;;;;;;19.60;38.30;;;;;;477223;249;1086;-54
2021/03/01 01:07:19;;;;;;;;;;;19.60;38.30;;;;;;477187;249;1054;-54
2021/03/01 01:09:20;;;;;;;;;;;19.60;38.30;;;;;;477264;249;1241;-54
2021/03/01 01:11:22;;;;;;;;;;;19.60;38.20;;;;;;477304;249;1040;-54
2021/03/01 01:13:23;;;;;;;;;;;19.70;38.30;;;;;;477140;249;1038;-54
2021/03/01 01:15:24;;;;;;;;;;;19.70;38.20;;;;;;477260;249;1068;-54
2021/03/01 01:17:25;;;;;;;;;;;19.70;38.20;;;;;;477310;249;2157;-54
2021/03/01 01:19:27;;;;;;;;;;;19.70;38.20;;;;;;477279;249;996;-54
2021/03/01 01:21:28;;;;;;;;;;;19.70;38.20;;;;;;477164;250;1215;-54
2021/03/01 01:23:29;;;;;;;;;;;19.70;38.20;;;;;;477239;249;1170;-53
2021/03/01 01:25:31;;;;;;;;;;;19.70;38.20;;;;;;477339;250;1088;-53
2021/03/01 01:27:32;;;;;;;;;;;19.70;38.20;;;;;;477232;249;1035;-54
2021/03/01 01:29:33;;;;;;;;;;;19.70;38.10;;;;;;477201;250;990;-54
2021/03/01 01:31:34;;;;;;;;;;;19.70;38.10;;;;;;477199;250;1171;-53
2021/03/01 01:33:36;;;;;;;;;;;19.70;38.10;;;;;;477272;249;1062;-54
2021/03/01 01:35:37;;;;;;;;;;;19.70;38.10;;;;;;477186;249;1056;-53
2021/03/01 01:37:38;;;;;;;;;;;19.70;38.10;;;;;;477173;249;2199;-54
2021/03/01 01:39:40;;;;;;;;;;;19.70;38.10;;;;;;477167;249;1225;-54
2021/03/01 01:41:41;;;;;;;;;;;19.70;38.10;;;;;;477049;249;1202;-54
2021/03/01 01:43:42;;;;;;;;;;;19.80;38.10;;;;;;477139;249;1052;-54
2021/03/01 01:45:43;;;;;;;;;;;19.80;38.10;;;;;;477155;249;988;-54
2021/03/01 01:47:45;;;;;;;;;;;19.80;38.10;;;;;;477266;249;1045;-54
2021/03/01 01:49:46;;;;;;;;;;;19.80;38.10;;;;;;477199;250;1058;-53
2021/03/01 01:51:47;;;;;;;;;;;19.80;38.10;;;;;;477180;249;1110;-54
2021/03/01 01:53:49;;;;;;;;;;;19.80;38.00;;;;;;477195;250;1177;-53
2021/03/01 01:55:50;;;;;;;;;;;19.80;38.10;;;;;;477407;249;1032;-54
2021/03/01 01:57:51;;;;;;;;;;;19.80;38.00;;;;;;477198;250;2197;-54
2021/03/01 01:59:52;;;;;;;;;;;19.80;38.00;;;;;;477352;249;952;-54
2021/03/01 02:01:54;;;;;;;;;;;19.80;38.00;;;;;;477149;250;1064;-54
2021/03/01 02:03:55;;;;;;;;;;;19.80;38.00;;;;;;477498;249;1060;-54
2021/03/01 02:05:57;;;;;;;;;;;19.80;38.00;;;;;;477243;249;1075;-54
2021/03/01 02:07:58;;;;;;;;;;;19.90;38.00;;;;;;477303;249;1241;-54
2021/03/01 02:09:59;;;;;;;;;;;19.80;37.90;;;;;;477171;250;1151;-54
2021/03/01 02:12:00;;;;;;;;;;;19.90;38.00;;;;;;477231;249;1250;-54
2021/03/01 02:14:02;;;;;;;;;;;19.90;38.00;;;;;;477301;249;1194;-53
2021/03/01 02:16:03;;;;;;;;;;;19.90;37.90;;;;;;477198;250;1070;-54
2021/03/01 02:18:04;;;;;;;;;;;19.90;37.90;;;;;;477154;250;2190;-54
2021/03/01 02:20:08;;;;;;;;;;;19.90;37.90;;;;;;477198;250;1029;-54
2021/03/01 02:22:07;;;;;;;;;;;19.90;37.90;;;;;;477253;249;2224;-53
2021/03/01 02:24:08;;;;;;;;;;;19.90;37.90;;;;;;477183;250;1266;-54
2021/03/01 02:26:09;;;;;;;;;;;19.90;37.90;;;;;;477280;249;1051;-54
2021/03/01 02:28:11;;;;;;;;;;;19.90;37.90;;;;;;477127;249;1338;-54
2021/03/01 02:30:12;;;;;;;;;;;19.90;37.80;;;;;;477225;249;1057;-54
2021/03/01 02:32:14;;;;;;;;;;;19.90;37.90;;;;;;477188;249;1272;-54
2021/03/01 02:34:15;;;;;;;;;;;19.90;37.80;;;;;;477187;250;1151;-53
2021/03/01 02:36:16;;;;;;;;;;;19.90;37.80;;;;;;477306;249;1038;-54
2021/03/01 02:38:17;;;;;;;;;;;20.00;37.90;;;;;;477139;249;2192;-54
2021/03/01 02:40:19;;;;;;;;;;;20.00;37.90;;;;;;477273;249;1161;-53
2021/03/01 02:42:20;;;;;;;;;;;19.90;37.80;;;;;;477235;249;1304;-54
2021/03/01 02:44:21;;;;;;;;;;;20.00;37.90;;;;;;477419;249;1068;-54
2021/03/01 02:46:22;;;;;;;;;;;20.00;37.90;;;;;;477203;250;1045;-53
2021/03/01 02:48:24;;;;;;;;;;;20.00;37.90;;;;;;477431;249;1091;-53
2021/03/01 02:50:25;;;;;;;;;;;20.00;37.90;;;;;;477167;250;1053;-54
2021/03/01 02:52:26;;;;;;;;;;;20.00;37.90;;;;;;477368;249;1067;-54
2021/03/01 02:54:28;;;;;;;;;;;20.00;37.80;;;;;;477212;250;1137;-53
2021/03/01 02:56:29;;;;;;;;;;;20.00;37.80;;;;;;477168;250;1071;-54
2021/03/01 02:58:30;;;;;;;;;;;20.00;37.80;;;;;;477231;249;2251;-54
2021/03/01 03:00:32;;;;;;;;;;;20.00;37.80;;;;;;477186;249;1083;-54
2021/03/01 03:02:33;;;;;;;;;;;20.00;37.80;;;;;;477109;249;1037;-54
2021/03/01 03:04:34;;;;;;;;;;;20.00;37.90;;;;;;477174;250;1069;-54
2021/03/01 03:06:35;;;;;;;;;;;20.10;37.80;;;;;;477155;250;1081;-54
2021/03/01 03:08:37;;;;;;;;;;;20.10;37.60;;;;;;477216;249;1039;-53
2021/03/01 03:10:38;;;;;;;;;;;20.10;37.70;;;;;;477221;249;1207;-54
2021/03/01 03:12:39;;;;;;;;;;;20.00;37.80;;;;;;477209;250;1057;-53
2021/03/01 03:14:41;;;;;;;;;;;19.90;37.90;;;;;;477246;249;1073;-53
2021/03/01 03:16:42;;;;;;;;;;;19.90;38.10;;;;;;477195;250;1081;-53
2021/03/01 03:18:43;;;;;;;;;;;19.80;38.20;;;;;;477124;250;2198;-53
2021/03/01 03:20:44;;;;;;;;;;;19.70;38.30;;;;;;477210;249;1046;-53
2021/03/01 03:22:46;;;;;;;;;;;19.60;38.40;;;;;;477307;249;1129;-54
2021/03/01 03:24:47;;;;;;;;;;;19.60;38.60;;;;;;477410;249;1134;-53
2021/03/01 03:26:48;;;;;;;;;;;19.50;38.70;;;;;;477329;249;1116;-54
2021/03/01 03:28:49;;;;;;;;;;;19.40;38.80;;;;;;477342;249;1158;-53
2021/03/01 03:30:51;;;;;;;;;;;19.40;38.90;;;;;;477378;249;1008;-54
2021/03/01 03:32:52;;;;;;;;;;;19.30;39.00;;;;;;477425;249;1066;-53
2021/03/01 03:34:54;;;;;;;;;;;19.20;39.00;;;;;;477513;249;1075;-53
2021/03/01 03:36:55;;;;;;;;;;;19.20;39.10;;;;;;477330;249;1094;-54
2021/03/01 03:38:56;;;;;;;;;;;19.10;39.20;;;;;;477380;249;2132;-53
2021/03/01 03:40:58;;;;;;;;;;;19.10;38.00;;;;;;477188;249;1153;-53
2021/03/01 03:42:59;;;;;;;;;;;19.10;39.40;;;;;;477156;249;1025;-53
2021/03/01 03:45:00;;;;;;;;;;;19.00;39.40;;;;;;477130;249;1078;-53
2021/03/01 03:47:01;;;;;;;;;;;19.00;39.50;;;;;;477069;250;1056;-53
2021/03/01 03:49:03;;;;;;;;;;;19.00;39.60;;;;;;477177;250;1037;-54
2021/03/01 03:51:04;;;;;;;;;;;18.90;39.70;;;;;;477451;249;1049;-53
2021/03/01 03:53:05;;;;;;;;;;;18.90;39.70;;;;;;477304;249;1059;-53
2021/03/01 03:55:06;;;;;;;;;;;18.80;39.70;;;;;;477203;249;1181;-53
2021/03/01 03:57:08;;;;;;;;;;;18.80;39.80;;;;;;477218;249;1058;-53
2021/03/01 03:59:09;;;;;;;;;;;18.70;39.90;;;;;;477213;249;2139;-54
2021/03/01 04:01:10;;;;;;;;;;;18.70;40.00;;;;;;477164;250;1083;-53
2021/03/01 04:03:12;;;;;;;;;;;18.70;40.00;;;;;;477171;250;1036;-53
2021/03/01 04:05:14;;;;;;;;;;;18.60;40.00;;;;;;477224;250;1099;-54
2021/03/01 04:07:14;;;;;;;;;;;18.60;40.10;;;;;;477165;250;2379;-53
2021/03/01 04:09:16;;;;;;;;;;;18.60;40.20;;;;;;477197;249;1071;-54
2021/03/01 04:11:17;;;;;;;;;;;18.50;40.10;;;;;;477168;250;1189;-53
2021/03/01 04:13:19;;;;;;;;;;;18.50;40.20;;;;;;477399;250;1188;-54
2021/03/01 04:15:20;;;;;;;;;;;18.50;40.20;;;;;;477202;249;1249;-53
2021/03/01 04:17:21;;;;;;;;;;;18.50;40.30;;;;;;477240;249;1062;-54
2021/03/01 04:19:22;;;;;;;;;;;18.40;40.30;;;;;;477377;249;2148;-53
2021/03/01 04:21:24;;;;;;;;;;;18.40;40.40;;;;;;477174;250;1241;-53
2021/03/01 04:23:25;;;;;;;;;;;18.40;40.40;;;;;;477401;249;1137;-54
2021/03/01 04:25:26;;;;;;;;;;;18.40;40.40;;;;;;477109;250;1198;-53
2021/03/01 04:27:28;;;;;;;;;;;18.30;40.40;;;;;;477188;249;1107;-53
2021/03/01 04:29:29;;;;;;;;;;;18.30;40.50;;;;;;477210;249;1070;-54
2021/03/01 04:31:30;;;;;;;;;;;18.30;40.50;;;;;;477138;250;1322;-53
2021/03/01 04:33:31;;;;;;;;;;;18.20;39.20;;;;;;477241;249;986;-53
2021/03/01 04:35:33;;;;;;;;;;;18.20;40.50;;;;;;477186;250;949;-53
2021/03/01 04:37:35;;;;;;;;;;;18.20;40.60;;;;;;477118;249;1404;-53
2021/03/01 04:39:36;;;;;;;;;;;18.20;40.60;;;;;;477333;249;2137;-53
2021/03/01 04:41:37;;;;;;;;;;;18.10;40.60;;;;;;477054;250;1204;-53
2021/03/01 04:43:38;;;;;;;;;;;18.20;40.70;;;;;;477272;249;1211;-53
2021/03/01 04:45:40;;;;;;;;;;;18.10;40.70;;;;;;477236;249;999;-53
2021/03/01 04:47:41;;;;;;;;;;;18.10;40.70;;;;;;477253;249;948;-53
2021/03/01 04:49:42;;;;;;;;;;;18.10;40.70;;;;;;477187;250;1031;-53
2021/03/01 04:51:43;;;;;;;;;;;18.10;40.80;;;;;;477190;249;1100;-53
2021/03/01 04:53:45;;;;;;;;;;;18.00;40.70;;;;;;477307;249;1103;-54
2021/03/01 04:55:46;;;;;;;;;;;18.00;40.80;;;;;;477469;249;1444;-53
2021/03/01 04:57:47;;;;;;;;;;;18.00;40.80;;;;;;477194;249;1054;-53
2021/03/01 04:59:49;;;;;;;;;;;18.00;40.90;;;;;;477277;249;2187;-54
2021/03/01 05:01:50;;;;;;;;;;;18.00;40.90;;;;;;477150;250;1117;-53
2021/03/01 05:03:51;;;;;;;;;;;18.00;40.90;;;;;;477197;249;1066;-53
2021/03/01 05:05:53;;;;;;;;;;;17.90;40.90;;;;;;477132;250;1253;-53
2021/03/01 05:07:54;;;;;;;;;;;17.90;40.90;;;;;;477388;249;1018;-53
2021/03/01 05:09:55;;;;;;;;;;;17.90;40.90;;;;;;477117;250;1218;-53
2021/03/01 05:11:57;;;;;;;;;;;17.90;40.90;;;;;;477003;250;1193;-53
2021/03/01 05:13:58;;;;;;;;;;;17.90;40.90;;;;;;477428;249;1194;-53
2021/03/01 05:15:59;;;;;;;;;;;17.90;40.80;;;;;;477134;249;1563;-53
2021/03/01 05:18:00;;;;;;;;;;;18.00;40.70;;;;;;477150;250;1072;-54
2021/03/01 05:20:02;;;;;;;;;;;18.00;40.60;;;;;;477144;249;2200;-53
2021/03/01 05:22:03;;;;;;;;;;;18.10;40.50;;;;;;477119;249;1261;-53
2021/03/01 05:24:04;;;;;;;;;;;18.10;40.40;;;;;;477137;250;1134;-53
2021/03/01 05:26:05;;;;;;;;;;;18.10;40.30;;;;;;477047;250;1370;-54
2021/03/01 05:28:07;;;;;;;;;;;18.10;40.20;;;;;;477178;249;1072;-54
2021/03/01 05:30:08;;;;;;;;;;;18.20;40.10;;;;;;477061;250;1050;-54
2021/03/01 05:32:09;;;;;;;;;;;18.20;40.10;;;;;;477135;249;1135;-54
2021/03/01 05:34:11;;;;;;;;;;;18.30;40.10;;;;;;477153;249;1067;-54
2021/03/01 05:36:12;;;;;;;;;;;18.30;38.70;;;;;;476939;249;1222;-53
2021/03/01 05:38:14;;;;;;;;;;;18.30;39.90;;;;;;477108;249;1037;-53
2021/03/01 05:40:15;;;;;;;;;;;18.30;39.90;;;;;;477126;249;2143;-54
2021/03/01 05:42:16;;;;;;;;;;;18.40;39.80;;;;;;476934;250;1228;-54
2021/03/01 05:44:18;;;;;;;;;;;18.40;39.80;;;;;;476980;250;1181;-54
2021/03/01 05:46:19;;;;;;;;;;;18.40;39.70;;;;;;476911;249;1047;-54
2021/03/01 05:48:20;;;;;;;;;;;18.50;39.70;;;;;;476905;250;1077;-54
2021/03/01 05:50:21;;;;;;;;;;;18.50;39.60;;;;;;476918;250;1114;-53
2021/03/01 05:52:23;;;;;;;;;;;18.50;39.60;;;;;;476964;249;1037;-54
2021/03/01 05:54:24;;;;;;;;;;;18.60;39.60;;;;;;477105;249;1387;-54
2021/03/01 05:56:25;;;;;;;;;;;18.60;39.50;;;;;;477027;249;1150;-54
2021/03/01 05:58:27;;;;;;;;;;;18.60;39.50;;;;;;476996;249;1081;-54
2021/03/01 06:00:28;;;;;;;;;;;18.60;39.40;;;;;;476944;249;2135;-54
2021/03/01 06:02:29;;;;;;;;;;;18.60;39.30;;;;;;476895;249;1065;-53
2021/03/01 06:04:31;;;;;;;;;;;18.70;39.30;;;;;;476871;249;1235;-53
2021/03/01 06:06:32;;;;;;;;;;;18.70;39.30;;;;;;476824;249;1215;-53
2021/03/01 06:08:34;;;;;;;;;;;18.70;39.20;;;;;;476915;250;1194;-54
2021/03/01 06:10:35;;;;;;;;;;;18.80;37.90;;;;;;476876;249;1341;-53
2021/03/01 06:12:36;;;;;;;;;;;18.80;39.20;;;;;;476929;249;1191;-54
2021/03/01 06:14:37;;;;;;;;;;;18.80;39.20;;;;;;476815;249;1332;-54
2021/03/01 06:16:38;;;;;;;;;;;18.80;39.10;;;;;;476790;249;1208;-54
2021/03/01 06:18:40;;;;;;;;;;;18.80;39.10;;;;;;476894;249;2188;-53
2021/03/01 06:20:41;;;;;;;;;;;18.90;39.10;;;;;;477023;249;1062;-54
2021/03/01 06:22:42;;;;;;;;;;;18.90;39.00;;;;;;476891;249;1220;-53
2021/03/01 06:24:43;;;;;;;;;;;18.90;39.00;;;;;;476790;250;1220;-54
2021/03/01 06:26:45;;;;;;;;;;;18.90;38.90;;;;;;476845;249;1269;-54
2021/03/01 06:28:46;;;;;;;;;;;19.00;38.90;;;;;;476837;249;1040;-54
2021/03/01 06:30:47;;;;;;;;;;;19.00;38.90;;;;;;476939;249;1100;-54
2021/03/01 06:32:49;;;;;;;;;;;19.00;38.90;;;;;;476895;250;1067;-54
2021/03/01 06:34:50;;;;;;;;;;;19.00;38.80;;;;;;476882;249;1051;-53
2021/03/01 06:36:51;;;;;;;;;;;19.10;37.50;;;;;;476712;250;1206;-53
2021/03/01 06:38:52;;;;;;;;;;;19.00;38.80;;;;;;476667;250;2202;-54
2021/03/01 06:40:54;;;;;;;;;;;19.10;38.80;;;;;;476574;249;1223;-54
2021/03/01 06:42:55;;;;;;;;;;;19.10;38.70;;;;;;476609;249;1335;-54
2021/03/01 06:44:56;;;;;;;;;;;19.10;38.70;;;;;;476630;249;1081;-54
2021/03/01 06:46:57;;;;;;;;;;;19.10;38.70;;;;;;476531;249;1217;-54
2021/03/01 06:48:59;;;;;;;;;;;19.10;38.60;;;;;;476727;250;1067;-54
2021/03/01 06:51:00;;;;;;;;;;;19.20;38.60;;;;;;476757;249;1295;-54
2021/03/01 06:53:01;;;;;;;;;;;19.20;38.60;;;;;;476777;250;1040;-53
2021/03/01 06:55:03;;;;;;;;;;;19.20;38.60;;;;;;476784;249;1126;-54
2021/03/01 06:57:04;;;;;;;;;;;19.20;38.60;;;;;;476653;249;1291;-54
2021/03/01 06:59:05;;;;;;;;;;;19.20;38.60;;;;;;476741;250;2368;-54
2021/03/01 07:01:06;;;;;;;;;;;19.20;38.50;;;;;;476631;249;1172;-54
2021/03/01 07:03:08;;;;;;;;;;;19.30;37.20;;;;;;476705;249;1070;-54
2021/03/01 07:05:09;;;;;;;;;;;19.30;38.50;;;;;;476623;249;1065;-53
2021/03/01 07:07:10;;;;;;;;;;;19.30;38.50;;;;;;476412;249;1181;-53
2021/03/01 07:09:12;;;;;;;;;;;19.30;38.40;;;;;;476613;249;1052;-53
2021/03/01 07:11:13;;;;;;;;;;;19.30;38.40;;;;;;476467;249;1377;-53
2021/03/01 07:13:14;;;;;;;;;;;19.30;37.10;;;;;;476687;249;1210;-54
2021/03/01 07:15:15;;;;;;;;;;;19.40;38.40;;;;;;476585;250;1103;-54
2021/03/01 07:17:17;;;;;;;;;;;19.40;38.40;;;;;;476740;249;1192;-53
2021/03/01 07:19:18;;;;;;;;;;;19.40;38.40;;;;;;476586;250;2203;-54
2021/03/01 07:21:19;;;;;;;;;;;19.40;38.30;;;;;;476446;249;1087;-53
2021/03/01 07:23:20;;;;;;;;;;;19.40;38.40;;;;;;476578;250;1096;-54
2021/03/01 07:25:22;;;;;;;;;;;19.40;38.30;;;;;;476609;250;1103;-54
2021/03/01 07:27:23;;;;;;;;;;;19.40;37.00;;;;;;476614;249;1309;-54
2021/03/01 07:29:24;;;;;;;;;;;19.40;38.30;;;;;;476629;249;1168;-53
2021/03/01 07:31:26;;;;;;;;;;;19.40;38.20;;;;;;476496;250;1090;-54
2021/03/01 07:33:27;;;;;;;;;;;19.40;36.90;;;;;;476575;250;1082;-53
2021/03/01 07:35:29;;;;;;;;;;;19.40;38.20;;;;;;476663;250;1220;-54
2021/03/01 07:37:30;;;;;;;;;;;19.40;36.90;;;;;;476611;249;1070;-54
2021/03/01 07:39:31;;;;;;;;;;;19.50;38.30;;;;;;476532;249;2152;-54
2021/03/01 07:41:32;;;;;;;;;;;19.50;36.90;;;;;;476519;250;1277;-53
2021/03/01 07:43:34;;;;;;;;;;;19.50;36.90;;;;;;476473;249;1203;-54
2021/03/01 07:45:35;;;;;;;;;;;19.50;38.20;;;;;;476510;249;1177;-54
2021/03/01 07:47:37;;;;;;;;;;;19.50;38.20;;;;;;476542;250;1269;-53
2021/03/01 07:49:38;;;;;;;;;;;19.50;38.20;;;;;;476285;250;1135;-53
2021/03/01 07:51:39;;;;;;;;;;;19.50;38.10;;;;;;476317;250;1217;-53
2021/03/01 07:53:41;;;;;;;;;;;19.50;36.90;;;;;;476357;249;1159;-53
2021/03/01 07:55:42;;;;;;;;;;;19.50;38.20;;;;;;476308;249;1246;-54
2021/03/01 07:57:43;;;;;;;;;;;19.50;38.20;;;;;;476340;250;1207;-54
2021/03/01 07:59:44;;;;;;;;;;;19.50;38.10;;;;;;476491;250;2190;-54
2021/03/01 08:01:46;;;;;;;;;;;19.60;36.90;;;;;;476400;250;1471;-54
2021/03/01 08:03:47;;;;;;;;;;;19.60;38.20;;;;;;476424;249;1065;-54
2021/03/01 08:05:48;;;;;;;;;;;19.60;38.20;;;;;;476272;250;1132;-53
2021/03/01 08:07:50;;;;;;;;;;;19.60;38.20;;;;;;476428;249;1208;-54
2021/03/01 08:09:51;;;;;;;;;;;19.60;38.20;;;;;;476318;250;1058;-54
2021/03/01 08:11:52;;;;;;;;;;;19.60;38.20;;;;;;476120;249;1053;-54
2021/03/01 08:13:53;;;;;;;;;;;19.70;36.90;;;;;;476480;249;1271;-54
2021/03/01 08:15:55;;;;;;;;;;;19.70;38.20;;;;;;476370;249;1082;-54
2021/03/01 08:17:56;;;;;;;;;;;19.70;38.20;;;;;;476469;250;1126;-54
2021/03/01 08:19:57;;;;;;;;;;;19.70;38.20;;;;;;476347;250;2156;-53
2021/03/01 08:21:59;;;;;;;;;;;19.70;38.20;;;;;;476310;250;1061;-54
2021/03/01 08:24:00;;;;;;;;;;;19.70;38.20;;;;;;476469;249;1252;-54
2021/03/01 08:26:02;;;;;;;;;;;19.70;38.20;;;;;;476450;249;1217;-54
2021/03/01 08:28:03;;;;;;;;;;;19.70;38.20;;;;;;476416;250;1053;-54
2021/03/01 08:30:05;;;;;;;;;;;19.70;38.20;;;;;;476560;249;1093;-54
2021/03/01 08:32:06;;;;;;;;;;;19.70;38.20;;;;;;476430;250;1084;-53
2021/03/01 08:34:07;;;;;;;;;;;19.70;38.20;;;;;;476337;249;1091;-54
2021/03/01 08:36:08;;;;;;;;;;;19.70;38.20;;;;;;476505;246;1547;-54
2021/03/01 08:38:10;;;;;;;;;;;19.70;38.10;;;;;;476734;249;1113;-54
2021/03/01 08:40:11;;;;;;;;;;;19.70;38.10;;;;;;476481;249;2207;-54
2021/03/01 08:42:12;;;;;;;;;;;19.80;38.20;;;;;;476480;249;1510;-54
2021/03/01 08:44:14;;;;;;;;;;;19.80;38.20;;;;;;476522;250;1156;-54
2021/03/01 08:46:15;;;;;;;;;;;19.80;38.10;;;;;;476400;249;1296;-54
2021/03/01 08:48:17;;;;;;;;;;;19.80;38.10;;;;;;476386;249;1047;-53
2021/03/01 08:50:18;;;;;;;;;;;19.80;38.10;;;;;;476446;249;1054;-54
2021/03/01 08:52:19;;;;;;;;;;;19.80;38.10;;;;;;476548;249;1172;-54
2021/03/01 08:54:20;;;;;;;;;;;19.80;38.10;;;;;;476470;249;1131;-53
2021/03/01 08:56:22;;;;;;;;;;;19.90;38.10;;;;;;476442;250;1051;-54
2021/03/01 08:58:23;;;;;;;;;;;19.90;38.10;;;;;;476453;250;1191;-54
2021/03/01 09:00:25;;;;;;;;;;;19.90;38.10;;;;;;476484;249;2191;-54
2021/03/01 09:02:26;;;;;;;;;;;19.90;38.10;;;;;;476515;249;1042;-54
2021/03/01 09:04:27;;;;;;;;;;;19.80;38.00;;;;;;476461;249;1043;-54
2021/03/01 09:06:28;;;;;;;;;;;19.90;38.00;;;;;;476370;249;1101;-53
2021/03/01 09:08:30;;;;;;;;;;;19.90;36.70;;;;;;476463;250;1105;-54
2021/03/01 09:10:31;;;;;;;;;;;19.90;38.10;;;;;;476602;249;1088;-54
2021/03/01 09:12:32;;;;;;;;;;;19.90;38.00;;;;;;476582;249;1088;-54
2021/03/01 09:14:33;;;;;;;;;;;19.90;38.00;;;;;;476217;249;1331;-54
2021/03/01 09:16:35;;;;;;;;;;;19.90;38.00;;;;;;476394;250;1268;-54
2021/03/01 09:18:36;;;;;;;;;;;19.90;36.70;;;;;;476340;249;1166;-54
2021/03/01 09:20:37;;;;;;;;;;;19.90;38.00;;;;;;476482;249;2136;-54
2021/03/01 09:22:39;;;;;;;;;;;19.90;36.70;;;;;;476443;250;1145;-54
2021/03/01 09:24:40;;;;;;;;;;;19.90;37.90;;;;;;476461;249;1063;-54
2021/03/01 09:26:41;;;;;;;;;;;19.90;37.90;;;;;;476560;249;1162;-53
2021/03/01 09:28:43;;;;;;;;;;;19.90;37.90;;;;;;476435;249;1219;-54
2021/03/01 09:30:44;;;;;;;;;;;19.90;37.90;;;;;;476265;249;1328;-54
2021/03/01 09:32:46;;;;;;;;;;;19.90;37.90;;;;;;476335;250;1216;-53
2021/03/01 09:34:47;;;;;;;;;;;20.00;38.00;;;;;;476455;249;1150;-54
2021/03/01 09:36:48;;;;;;;;;;;20.00;37.90;;;;;;476320;250;1222;-54
2021/03/01 09:38:49;;;;;;;;;;;20.00;37.90;;;;;;476374;249;1066;-53
2021/03/01 09:40:51;;;;;;;;;;;20.00;38.00;;;;;;476353;250;2195;-54
2021/03/01 09:42:52;;;;;;;;;;;20.00;38.00;;;;;;476350;249;1109;-54
2021/03/01 09:44:53;;;;;;;;;;;20.00;37.90;;;;;;476267;249;1206;-54
2021/03/01 09:46:54;;;;;;;;;;;20.00;37.90;;;;;;476346;249;1288;-53
2021/03/01 09:48:56;;;;;;;;;;;20.00;37.90;;;;;;476338;249;1097;-54
2021/03/01 09:50:57;;;;;;;;;;;20.00;37.90;;;;;;476426;249;1752;-54
2021/03/01 09:52:58;;;;;;;;;;;20.00;37.90;;;;;;476587;249;1054;-53
2021/03/01 09:55:00;;;;;;;;;;;20.00;36.60;;;;;;476358;249;1232;-54
2021/03/01 09:57:01;;;;;;;;;;;20.00;37.90;;;;;;476616;249;1184;-54
2021/03/01 09:59:02;;;;;;;;;;;20.00;37.90;;;;;;476333;249;1221;-54
2021/03/01 10:01:03;;;;;;;;;;;20.00;37.90;;;;;;475964;249;2219;-54
2021/03/01 10:03:05;;;;;;;;;;;20.10;37.90;;;;;;476165;249;1181;-54
2021/03/01 10:05:06;;;;;;;;;;;20.10;37.90;;;;;;476382;249;1375;-54
2021/03/01 10:07:07;;;;;;;;;;;20.00;37.90;;;;;;476358;249;1484;-54
2021/03/01 10:09:09;;;;;;;;;;;20.10;37.90;;;;;;476163;250;1149;-54
2021/03/01 10:11:10;;;;;;;;;;;20.10;37.90;;;;;;476253;249;1187;-54
2021/03/01 10:13:11;;;;;;;;;;;20.10;37.90;;;;;;476033;250;1173;-54
2021/03/01 10:15:13;;;;;;;;;;;20.10;38.00;;;;;;476248;249;1162;-54
2021/03/01 10:17:14;;;;;;;;;;;20.20;37.80;;;;;;476136;249;1058;-54
2021/03/01 10:19:15;;;;;;;;;;;20.20;37.70;;;;;;476166;250;1098;-54
2021/03/01 10:21:17;;;;;;;;;;;20.20;37.70;;;;;;476102;249;2191;-54
2021/03/01 10:23:18;;;;;;;;;;;20.20;36.50;;;;;;476218;249;1117;-53
2021/03/01 10:25:19;;;;;;;;;;;20.20;37.80;;;;;;476128;249;1094;-54
2021/03/01 10:27:21;;;;;;;;;;;20.10;37.90;;;;;;476075;250;1037;-54
2021/03/01 10:29:22;;;;;;;;;;;20.10;38.00;;;;;;476017;250;1108;-53
2021/03/01 10:31:24;;;;;;;;;;;20.10;38.00;;;;;;476184;250;1214;-54
2021/03/01 10:33:25;;;;;;;;;;;20.00;38.00;;;;;;476669;249;2290;-54
2021/03/01 10:35:26;;;;;;;;;;;20.00;36.80;;;;;;475978;250;1342;-54
2021/03/01 10:37:27;;;;;;;;;;;20.00;38.10;;;;;;476417;250;1378;-54
2021/03/01 10:39:29;;;;;;;;;;;19.90;38.20;;;;;;476166;249;1247;-54
2021/03/01 10:41:30;;;;;;;;;;;19.90;38.20;;;;;;476212;250;2191;-53
2021/03/01 10:43:32;;;;;;;;;;;19.90;37.00;;;;;;476241;249;1217;-53
2021/03/01 10:45:33;;;;;;;;;;;19.80;37.00;;;;;;476261;249;1281;-53
2021/03/01 10:47:34;;;;;;;;;;;19.80;38.30;;;;;;476308;249;1276;-54
2021/03/01 10:49:35;;;;;;;;;;;19.80;38.30;;;;;;476252;249;1179;-53
2021/03/01 10:51:37;;;;;;;;;;;19.80;38.40;;;;;;476217;250;1156;-54
2021/03/01 10:53:38;;;;;;;;;;;19.80;38.40;;;;;;476193;249;1254;-54
2021/03/01 10:55:39;;;;;;;;;;;19.80;38.50;;;;;;476210;249;1359;-53
2021/03/01 10:57:40;;;;;;;;;;;19.70;38.50;;;;;;476215;249;1186;-53
2021/03/01 10:59:42;;;;;;;;;;;19.70;38.50;;;;;;476410;249;1239;-53
2021/03/01 11:01:43;;;;;;;;;;;19.70;38.50;;;;;;476224;250;2215;-53
2021/03/01 11:03:45;;;;;;;;;;;19.70;38.50;;;;;;476219;249;1328;-54
2021/03/01 11:05:46;;;;;;;;;;;19.70;38.50;;;;;;476254;249;2306;-54
2021/03/01 11:07:47;;;;;;;;;;;19.60;38.50;;;;;;476266;249;1178;-53
2021/03/01 11:09:49;;;;;;;;;;;19.70;38.60;;;;;;476378;249;1197;-53
2021/03/01 11:11:51;;;;;;;;;;;19.60;38.60;;;;;;476335;249;1370;-54
2021/03/01 11:13:52;;;;;;;;;;;19.60;38.60;;;;;;476319;249;1096;-54
2021/03/01 11:15:53;;;;;;;;;;;19.60;38.60;;;;;;476053;250;1175;-53
2021/03/01 11:17:54;;;;;;;;;;;19.60;38.60;;;;;;475942;250;1128;-54
2021/03/01 11:19:57;;;;;;;;;;;19.60;38.60;;;;;;476159;250;1125;-54
2021/03/01 11:21:57;;;;;;;;;;;19.60;38.70;;;;;;476024;249;2180;-54
2021/03/01 11:23:58;;;;;;;;;;;19.50;38.60;;;;;;476154;249;1043;-53
2021/03/01 11:26:00;;;;;;;;;;;19.50;37.40;;;;;;476080;249;1079;-53
2021/03/01 11:28:01;;;;;;;;;;;19.50;38.70;;;;;;476068;249;1061;-53
2021/03/01 11:30:02;;;;;;;;;;;19.50;37.40;;;;;;476115;250;1159;-53
2021/03/01 11:32:04;;;;;;;;;;;19.50;38.80;;;;;;476076;249;1110;-53
2021/03/01 11:34:06;;;;;;;;;;;19.40;37.60;;;;;;476154;249;1131;-53
2021/03/01 11:36:06;;;;;;;;;;;19.40;39.00;;;;;;476142;249;2122;-54
2021/03/01 11:38:08;;;;;;;;;;;19.40;39.00;;;;;;476149;249;1065;-54
2021/03/01 11:40:09;;;;;;;;;;;19.30;39.00;;;;;;476367;250;1093;-54
2021/03/01 11:42:12;;;;;;;;;;;19.30;39.10;;;;;;476386;250;2183;-53
2021/03/01 11:44:12;;;;;;;;;;;19.30;39.20;;;;;;476280;249;1328;-53
2021/03/01 11:46:13;;;;;;;;;;;19.20;39.30;;;;;;476291;249;1255;-54
2021/03/01 11:48:14;;;;;;;;;;;19.10;39.30;;;;;;475932;249;1096;-54
2021/03/01 11:50:15;;;;;;;;;;;19.10;39.30;;;;;;475799;249;1075;-53
2021/03/01 11:52:17;;;;;;;;;;;19.10;39.40;;;;;;475894;249;1127;-53
2021/03/01 11:54:18;;;;;;;;;;;19.10;38.10;;;;;;476142;249;1191;-53
2021/03/01 11:56:20;;;;;;;;;;;19.00;39.40;;;;;;476242;250;1225;-54